Time;durP1;ratioP1;P1;durP2;ratioP2;P2;SDS_P1;SDS_P2;PMS_P1;PMS_P2;Temp;Humidity;BMP_temperature;BMP_pressure;BME280_temperature;BME280_humidity;BME280_pressure;Samples;Min_cycle;Max_cycle;Signal;HPM_P1;HPM_P2
2022/02/20 00:01:09;;;;;;;1.33;0.77;;;;;;;3.57;93.95;99259.78;5006878;28;20366;-78
2022/02/20 00:03:35;;;;;;;0.50;0.50;;;;;;;3.51;93.77;99256.41;5007573;28;20204;-79
2022/02/20 00:06:02;;;;;;;0.93;0.70;;;;;;;3.53;94.14;99227.13;5007143;28;20204;-80
2022/02/20 00:08:29;;;;;;;1.70;0.67;;;;;;;3.54;94.77;99212.50;5004621;28;20250;-80
2022/02/20 00:10:56;;;;;;;0.70;0.67;;;;;;;3.60;94.54;99221.91;5006425;28;20224;-79
2022/02/20 00:13:23;;;;;;;1.60;0.50;;;;;;;3.56;94.91;99203.84;5010939;28;20201;-79
2022/02/20 00:15:50;;;;;;;1.03;0.90;;;;;;;3.45;94.49;99212.56;5006145;28;20228;-80
2022/02/20 00:18:16;;;;;;;0.97;0.60;;;;;;;3.52;94.82;99203.91;5009563;28;20205;-79
2022/02/20 00:20:44;;;;;;;1.03;0.80;;;;;;;3.48;95.24;99209.97;5005906;28;20663;-79
2022/02/20 00:23:10;;;;;;;1.60;0.67;;;;;;;3.51;96.07;99184.16;5006377;28;20209;-80
2022/02/20 00:25:38;;;;;;;1.93;0.70;;;;;;;3.56;96.31;99172.91;5012372;28;20286;-79
2022/02/20 00:28:06;;;;;;;1.57;0.60;;;;;;;3.61;96.30;99167.72;5008350;28;20772;-78
2022/02/20 00:30:33;;;;;;;1.27;0.80;;;;;;;3.69;95.69;99171.06;5005411;28;20283;-79
2022/02/20 00:33:00;;;;;;;0.70;0.70;;;;;;;3.64;95.56;99193.47;5007580;28;20209;-80
2022/02/20 00:35:27;;;;;;;1.10;0.63;;;;;;;3.65;95.46;99183.97;5012054;28;20280;-79
2022/02/20 00:37:54;;;;;;;0.60;0.60;;;;;;;3.57;95.91;99197.00;5005803;28;20200;-79
2022/02/20 00:40:20;;;;;;;0.50;0.50;;;;;;;3.64;95.36;99190.88;5003482;28;20223;-81
2022/02/20 00:42:47;;;;;;;0.67;0.67;;;;;;;3.64;95.52;99193.47;5006058;28;20321;-80
2022/02/20 00:45:14;;;;;;;0.80;0.80;;;;;;;3.69;95.56;99193.44;5006187;28;20201;-79
2022/02/20 00:47:41;;;;;;;0.40;0.40;;;;;;;3.74;95.69;99187.31;5005477;28;20198;-80
2022/02/20 00:50:08;;;;;;;0.97;0.53;;;;;;;3.77;95.76;99207.09;5002810;28;20226;-80
2022/02/20 00:52:35;;;;;;;0.50;0.50;;;;;;;3.67;95.32;99211.50;5004250;28;20205;-79
2022/02/20 00:55:01;;;;;;;1.23;0.80;;;;;;;3.74;96.16;99201.97;5007116;28;20214;-80
2022/02/20 00:57:28;;;;;;;0.47;0.47;;;;;;;3.83;96.02;99191.53;5010733;28;20371;-79
2022/02/20 00:59:54;;;;;;;0.50;0.50;;;;;;;3.88;96.35;99184.56;5006800;28;20647;-79
2022/02/20 01:02:22;;;;;;;1.20;0.63;;;;;;;3.89;96.23;99208.69;5010710;28;20723;-79
2022/02/20 01:04:48;;;;;;;0.43;0.43;;;;;;;3.90;96.34;99203.47;5003249;28;20212;-79
2022/02/20 01:07:14;;;;;;;0.53;0.40;;;;;;;3.84;96.55;99195.81;5004149;28;20203;-79
2022/02/20 01:09:41;;;;;;;0.70;0.40;;;;;;;3.95;97.03;99208.59;5008192;28;20343;-79
2022/02/20 01:12:08;;;;;;;0.93;0.47;;;;;;;3.81;96.58;99213.09;5008837;28;20204;-78
2022/02/20 01:14:34;;;;;;;0.50;0.40;;;;;;;3.81;96.49;99221.69;5004170;28;20677;-79
2022/02/20 01:17:00;;;;;;;0.20;0.20;;;;;;;3.83;96.29;99211.34;5001337;28;20218;-80
2022/02/20 01:19:28;;;;;;;0.83;0.40;;;;;;;3.76;96.95;99215.69;5002901;28;20231;-80
2022/02/20 01:21:55;;;;;;;0.63;0.57;;;;;;;3.66;97.21;99201.19;5004212;28;20203;-79
2022/02/20 01:24:21;;;;;;;0.40;0.40;;;;;;;3.74;97.46;99196.78;5003652;28;20250;-78
2022/02/20 01:26:47;;;;;;;0.40;0.40;;;;;;;3.82;97.19;99196.72;5005446;28;20196;-79
2022/02/20 01:29:14;;;;;;;0.50;0.50;;;;;;;3.72;97.97;99181.31;4996864;28;20680;-81
2022/02/20 01:31:40;;;;;;;0.80;0.60;;;;;;;3.73;98.18;99180.47;4993849;28;20799;-79
2022/02/20 01:34:06;;;;;;;1.43;0.57;;;;;;;3.72;98.63;99172.72;4993695;28;20679;-80
2022/02/20 01:36:34;;;;;;;0.57;0.57;;;;;;;3.79;98.55;99174.38;4993879;28;20230;-79
2022/02/20 01:39:00;;;;;;;0.60;0.47;;;;;;;3.71;98.42;99166.72;5014866;28;20265;-80
2022/02/20 01:41:27;;;;;;;0.50;0.50;;;;;;;3.76;98.52;99187.31;5025080;28;20270;-81
2022/02/20 01:43:55;;;;;;;0.63;0.60;;;;;;;3.84;98.86;99167.41;5033029;28;20210;-81
2022/02/20 01:46:21;;;;;;;0.60;0.60;;;;;;;3.82;98.84;99176.91;5033093;28;20757;-81
2022/02/20 01:48:48;;;;;;;0.70;0.70;;;;;;;3.96;99.10;99179.31;5032637;28;20240;-79
2022/02/20 01:51:15;;;;;;;0.70;0.70;;;;;;;4.05;98.46;99192.13;5032632;28;20655;-79
2022/02/20 01:53:43;;;;;;;0.77;0.70;;;;;;;4.11;97.85;99207.53;5032966;28;20206;-80
2022/02/20 01:56:11;;;;;;;0.70;0.70;;;;;;;4.08;97.74;99225.63;5056537;23;20365;-80
2022/02/20 01:58:38;;;;;;;1.43;0.90;;;;;;;4.08;97.92;99229.97;5044733;28;20730;-78
2022/02/20 02:01:05;;;;;;;2.00;0.80;;;;;;;3.94;98.74;99220.66;5032700;28;20580;-78
2022/02/20 02:03:33;;;;;;;1.50;1.00;;;;;;;3.96;98.95;99213.75;5040525;28;20202;-78
2022/02/20 02:05:59;;;;;;;1.30;1.20;;;;;;;3.98;99.47;99195.66;5053100;28;20225;-80
2022/02/20 02:08:25;;;;;;;1.93;1.77;;;;;;;4.01;100.00;99185.28;5055295;28;20692;-79
2022/02/20 02:10:53;;;;;;;2.17;2.07;;;;;;;4.06;100.00;99174.91;5055382;28;20210;-80
2022/02/20 02:13:20;;;;;;;4.73;2.90;;;;;;;4.21;100.00;99176.44;5054780;28;20205;-79
2022/02/20 02:15:50;;;;;;;2.57;2.47;;;;;;;4.32;100.00;99178.00;5054872;28;20226;-79
2022/02/20 02:18:17;;;;;;;2.20;2.10;;;;;;;4.41;100.00;99179.59;5054027;28;20234;-80
2022/02/20 02:20:43;;;;;;;2.33;2.13;;;;;;;4.48;100.00;99188.09;5053937;28;20208;-79
2022/02/20 02:23:13;;;;;;;2.17;1.97;;;;;;;4.48;100.00;99193.25;5054726;28;20208;-79
2022/02/20 02:25:40;;;;;;;2.23;2.00;;;;;;;4.52;100.00;99216.47;5054305;28;20224;-79
2022/02/20 02:28:07;;;;;;;2.20;2.00;;;;;;;4.54;100.00;99209.56;5054184;28;20225;-80
2022/02/20 02:30:34;;;;;;;2.10;2.00;;;;;;;4.56;99.84;99220.72;5054628;28;20230;-80
2022/02/20 02:33:00;;;;;;;2.60;2.00;;;;;;;4.64;99.88;99227.50;5050532;28;20266;-79
2022/02/20 02:35:26;;;;;;;1.80;1.67;;;;;;;4.66;100.00;99236.06;5053813;28;20198;-79
2022/02/20 02:37:53;;;;;;;2.07;1.87;;;;;;;4.63;100.00;99234.41;5054103;28;20227;-79
2022/02/20 02:40:21;;;;;;;2.13;1.60;;;;;;;4.66;100.00;99241.25;5053090;28;20684;-79
2022/02/20 02:42:47;;;;;;;2.40;2.20;;;;;;;4.68;100.00;99240.38;5053875;28;20204;-79
2022/02/20 02:45:14;;;;;;;2.20;1.90;;;;;;;4.69;100.00;99241.22;5053554;28;20216;-79
2022/02/20 02:47:40;;;;;;;2.70;2.50;;;;;;;4.66;100.00;99221.44;5053348;28;20230;-79
2022/02/20 02:50:07;;;;;;;2.47;2.27;;;;;;;4.67;100.00;99236.06;5052877;28;20213;-79
2022/02/20 02:52:34;;;;;;;2.47;2.27;;;;;;;4.69;100.00;99238.63;5052972;28;20560;-80
2022/02/20 02:55:00;;;;;;;6.27;2.43;;;;;;;4.72;100.00;99236.00;5053770;28;20207;-79
2022/02/20 02:57:28;;;;;;;1.93;1.83;;;;;;;4.71;100.00;99250.66;5052619;28;20232;-79
2022/02/20 02:59:54;;;;;;;2.77;2.57;;;;;;;4.74;100.00;99257.53;5052685;28;20635;-80
2022/02/20 03:02:20;;;;;;;2.13;2.00;;;;;;;4.77;100.00;99268.66;5052530;28;20610;-79
2022/02/20 03:04:47;;;;;;;2.87;2.47;;;;;;;4.77;100.00;99288.47;5048884;28;20215;-79
2022/02/20 03:07:14;;;;;;;2.63;2.43;;;;;;;4.74;100.00;99294.56;5053412;28;20281;-78
2022/02/20 03:09:40;;;;;;;2.57;2.37;;;;;;;4.81;100.00;99304.81;5052549;28;20203;-81
2022/02/20 03:12:08;;;;;;;2.50;2.30;;;;;;;4.86;99.16;99332.31;5052628;28;20266;-79
2022/02/20 03:14:36;;;;;;;2.70;2.50;;;;;;;4.86;98.75;99355.59;5052635;28;20241;-80
2022/02/20 03:17:03;;;;;;;3.13;2.80;;;;;;;4.85;98.64;99374.53;5052548;28;20236;-80
2022/02/20 03:19:29;;;;;;;2.80;2.60;;;;;;;4.83;98.50;99376.28;5051773;28;20241;-78
2022/02/20 03:21:55;;;;;;;3.17;2.50;;;;;;;4.88;98.39;99392.63;5052253;28;20258;-79
2022/02/20 03:24:22;;;;;;;3.97;2.83;;;;;;;4.79;98.38;99403.06;5052703;28;20260;-79
2022/02/20 03:26:48;;;;;;;2.53;2.07;;;;;;;4.78;98.39;99407.38;5052808;28;20223;-79
2022/02/20 03:29:15;;;;;;;2.60;2.03;;;;;;;4.72;98.96;99404.88;5054153;28;20676;-79
2022/02/20 03:31:42;;;;;;;2.27;2.00;;;;;;;4.71;98.65;99410.06;5053743;28;20207;-78
2022/02/20 03:34:09;;;;;;;4.77;2.33;;;;;;;4.73;98.77;99405.72;5050321;28;20210;-79
2022/02/20 03:36:35;;;;;;;3.23;1.97;;;;;;;4.68;98.33;99429.06;5056417;28;20276;-78
2022/02/20 03:39:01;;;;;;;2.10;1.90;;;;;;;4.62;97.90;99447.22;5056602;28;20206;-78
2022/02/20 03:41:28;;;;;;;2.30;2.10;;;;;;;4.60;97.92;99468.75;5056194;28;20202;-80
2022/02/20 03:43:54;;;;;;;4.73;2.13;;;;;;;4.60;97.77;99477.41;5056067;28;20205;-80
2022/02/20 03:46:21;;;;;;;3.07;2.60;;;;;;;4.59;97.73;99473.09;5055844;28;20224;-80
2022/02/20 03:48:48;;;;;;;6.60;2.73;;;;;;;4.54;97.99;99480.91;5066319;28;20610;-81
2022/02/20 03:51:14;;;;;;;3.27;2.13;;;;;;;4.56;97.77;99478.31;5074934;28;20235;-79
2022/02/20 03:53:42;;;;;;;3.47;2.53;;;;;;;4.55;97.04;99487.75;5073949;28;20346;-80
2022/02/20 03:56:08;;;;;;;2.63;2.30;;;;;;;4.57;97.19;99514.44;5064120;28;20573;-79
2022/02/20 03:58:34;;;;;;;6.30;2.30;;;;;;;4.52;97.09;99520.53;5056111;28;20213;-80
2022/02/20 04:01:01;;;;;;;3.47;2.13;;;;;;;4.56;96.19;99542.91;5055695;28;20232;-79
2022/02/20 04:03:27;;;;;;;3.70;2.10;;;;;;;4.51;96.03;99558.44;5051093;28;20671;-79
2022/02/20 04:05:55;;;;;;;3.97;1.73;;;;;;;4.50;95.97;99561.03;5055391;28;20751;-79
2022/02/20 04:08:21;;;;;;;2.17;1.83;;;;;;;4.51;96.04;99570.50;5055673;28;20204;-79
2022/02/20 04:10:48;;;;;;;4.17;2.93;;;;;;;4.51;95.55;99593.75;5055430;28;20263;-79
2022/02/20 04:13:14;;;;;;;2.37;1.83;;;;;;;4.50;95.30;99594.63;5055751;28;20263;-79
2022/02/20 04:15:40;;;;;;;2.33;2.03;;;;;;;4.51;94.98;99614.44;5055681;28;20261;-79
2022/02/20 04:18:07;;;;;;;2.80;2.20;;;;;;;4.54;94.71;99628.19;5055539;28;20295;-78
2022/02/20 04:20:33;;;;;;;3.43;3.07;;;;;;;4.48;95.28;99633.41;5055162;28;20210;-79
2022/02/20 04:23:01;;;;;;;4.30;2.60;;;;;;;4.46;95.34;99629.09;5055167;28;20204;-79
2022/02/20 04:25:27;;;;;;;5.00;2.60;;;;;;;4.45;95.42;99632.56;5049242;28;20209;-78
2022/02/20 04:27:53;;;;;;;4.90;2.80;;;;;;;4.48;95.34;99630.84;5055074;28;20217;-80
2022/02/20 04:30:20;;;;;;;4.77;3.50;;;;;;;4.48;95.21;99633.41;5054581;28;20315;-80
2022/02/20 04:32:47;;;;;;;5.60;2.70;;;;;;;4.45;95.59;99638.59;5055255;28;20220;-78
2022/02/20 04:35:13;;;;;;;5.00;2.80;;;;;;;4.45;95.69;99640.31;5055458;28;20254;-77
2022/02/20 04:37:39;;;;;;;5.53;2.93;;;;;;;4.43;95.35;99647.22;5055899;28;20237;-79
2022/02/20 04:40:08;;;;;;;4.97;3.03;;;;;;;4.43;95.29;99658.41;5054810;28;20207;-78
2022/02/20 04:42:34;;;;;;;5.83;3.67;;;;;;;4.40;95.54;99675.66;5054508;28;20266;-79
2022/02/20 04:45:01;;;;;;;4.67;3.03;;;;;;;4.42;95.36;99672.22;5054076;28;20876;-79
2022/02/20 04:47:28;;;;;;;5.13;3.43;;;;;;;4.40;95.48;99681.72;5054533;28;20278;-77
2022/02/20 04:49:54;;;;;;;4.73;3.73;;;;;;;4.37;95.85;99682.56;5054423;28;20211;-78
2022/02/20 04:52:21;;;;;;;6.50;3.47;;;;;;;4.39;95.41;99679.97;5054383;28;20263;-78
2022/02/20 04:54:47;;;;;;;4.57;3.57;;;;;;;4.38;95.88;99694.63;5047569;28;20669;-79
2022/02/20 04:57:15;;;;;;;5.23;3.87;;;;;;;4.38;95.34;99692.03;5053988;28;20225;-78
2022/02/20 04:59:41;;;;;;;10.30;4.10;;;;;;;4.35;95.68;99701.53;5053725;28;20629;-80
2022/02/20 05:02:07;;;;;;;9.23;5.40;;;;;;;4.41;95.32;99690.31;5054492;28;20591;-80
2022/02/20 05:04:34;;;;;;;7.60;3.60;;;;;;;4.44;95.16;99704.06;5049602;28;20202;-77
2022/02/20 05:07:00;;;;;;;4.93;3.67;;;;;;;4.47;95.13;99727.28;5054055;28;20216;-78
2022/02/20 05:09:26;;;;;;;5.57;4.03;;;;;;;4.48;94.73;99736.78;5053837;28;20391;-78
2022/02/20 05:11:53;;;;;;;4.87;4.00;;;;;;;4.47;94.98;99741.94;5053915;28;20266;-80
2022/02/20 05:14:20;;;;;;;5.70;3.73;;;;;;;4.45;95.16;99736.78;5053525;28;20761;-78
2022/02/20 05:16:47;;;;;;;5.93;3.83;;;;;;;4.42;95.30;99735.94;5053595;28;20230;-79
2022/02/20 05:19:13;;;;;;;4.67;3.93;;;;;;;4.52;94.97;99729.84;5053721;28;20209;-78
2022/02/20 05:21:39;;;;;;;7.27;4.43;;;;;;;4.45;94.77;99728.19;5053391;28;20580;-80
2022/02/20 05:24:06;;;;;;;5.07;3.33;;;;;;;4.46;94.87;99737.63;5053523;28;20206;-79
2022/02/20 05:26:33;;;;;;;9.13;4.10;;;;;;;4.47;94.91;99735.06;5053372;28;20260;-79
2022/02/20 05:28:59;;;;;;;7.13;3.80;;;;;;;4.51;94.58;99739.34;5053507;28;20205;-78
2022/02/20 05:31:27;;;;;;;4.73;3.70;;;;;;;4.54;94.47;99767.75;5053162;28;20262;-78
2022/02/20 05:33:53;;;;;;;5.67;3.83;;;;;;;4.53;94.49;99778.09;5049113;28;20588;-79
2022/02/20 05:36:19;;;;;;;7.27;4.13;;;;;;;4.51;94.59;99759.16;5052955;28;20707;-78
2022/02/20 05:38:46;;;;;;;6.53;4.03;;;;;;;4.56;94.49;99773.78;5053087;28;20224;-79
2022/02/20 05:41:12;;;;;;;7.80;4.20;;;;;;;4.44;94.18;99780.72;5052679;28;20687;-78
2022/02/20 05:43:39;;;;;;;7.90;4.57;;;;;;;4.43;94.50;99760.94;5050344;28;20205;-79
2022/02/20 05:46:06;;;;;;;6.10;4.47;;;;;;;4.43;94.00;99777.28;5052544;28;20586;-79
2022/02/20 05:48:33;;;;;;;4.53;3.90;;;;;;;4.38;93.96;99792.81;5052633;28;20209;-80
2022/02/20 05:51:00;;;;;;;4.57;4.13;;;;;;;4.37;94.37;99785.91;5052466;28;20264;-79
2022/02/20 05:53:26;;;;;;;5.47;4.23;;;;;;;4.45;94.17;99787.63;5052762;28;20206;-80
2022/02/20 05:55:52;;;;;;;8.40;4.07;;;;;;;4.44;94.22;99791.94;5052259;28;20266;-79
2022/02/20 05:58:19;;;;;;;5.97;4.27;;;;;;;4.45;93.87;99805.69;5051874;28;20649;-79
2022/02/20 06:00:45;;;;;;;5.80;3.87;;;;;;;4.50;94.33;99799.66;5051832;28;20746;-78
2022/02/20 06:03:12;;;;;;;7.40;3.63;;;;;;;4.42;93.74;99803.13;5047594;28;20206;-79
2022/02/20 06:05:39;;;;;;;6.70;3.90;;;;;;;4.40;93.27;99825.53;5052294;28;20220;-79
2022/02/20 06:08:06;;;;;;;6.60;3.83;;;;;;;4.42;92.82;99841.88;5055305;28;20286;-78
2022/02/20 06:10:32;;;;;;;6.37;4.10;;;;;;;4.48;92.74;99847.03;5054658;28;20208;-79
2022/02/20 06:12:59;;;;;;;7.17;3.70;;;;;;;4.42;92.48;99849.63;5054156;28;20631;-79
2022/02/20 06:15:25;;;;;;;3.50;3.20;;;;;;;4.52;92.47;99856.47;5054157;28;20272;-80
2022/02/20 06:17:51;;;;;;;6.70;3.73;;;;;;;4.43;92.60;99853.94;5054650;28;20928;-79
2022/02/20 06:20:18;;;;;;;5.77;3.90;;;;;;;4.45;92.52;99852.22;5054449;28;20251;-80
2022/02/20 06:22:45;;;;;;;3.90;3.50;;;;;;;4.50;92.34;99858.22;5054644;28;20214;-78
2022/02/20 06:25:12;;;;;;;4.83;3.60;;;;;;;4.51;92.31;99862.53;5054358;28;20630;-79
2022/02/20 06:27:38;;;;;;;4.30;3.73;;;;;;;4.44;91.68;99882.38;5054753;28;20281;-80
2022/02/20 06:30:06;;;;;;;8.10;3.90;;;;;;;4.51;91.33;99886.63;5053862;28;20263;-80
2022/02/20 06:32:32;;;;;;;5.97;3.23;;;;;;;4.43;90.43;99905.63;5054441;28;20215;-80
2022/02/20 06:34:59;;;;;;;5.07;3.20;;;;;;;4.43;90.73;99903.03;5050486;28;20264;-80
2022/02/20 06:37:25;;;;;;;4.03;3.30;;;;;;;4.44;90.71;99902.16;5053226;28;20230;-79
2022/02/20 06:39:53;;;;;;;4.33;3.70;;;;;;;4.51;90.51;99902.16;5054202;28;20208;-80
2022/02/20 06:42:19;;;;;;;6.90;3.90;;;;;;;4.55;89.90;99909.03;5054322;28;20201;-80
2022/02/20 06:44:45;;;;;;;4.73;3.80;;;;;;;4.60;89.37;99919.38;5054151;28;20209;-80
2022/02/20 06:47:12;;;;;;;4.47;3.53;;;;;;;4.45;89.13;99945.25;5054453;28;20865;-80
2022/02/20 06:49:38;;;;;;;4.67;3.53;;;;;;;4.51;88.98;99943.50;5054051;28;20228;-80
2022/02/20 06:52:05;;;;;;;4.67;3.43;;;;;;;4.41;88.67;99948.69;5053630;28;20281;-80
2022/02/20 06:54:31;;;;;;;4.10;3.80;;;;;;;4.48;88.46;99940.94;5053484;28;20231;-79
2022/02/20 06:56:59;;;;;;;4.07;3.70;;;;;;;4.39;88.37;99969.38;5052645;28;20671;-79
2022/02/20 06:59:26;;;;;;;4.10;3.80;;;;;;;4.40;87.59;99985.72;5052665;28;20251;-78
2022/02/20 07:01:53;;;;;;;5.07;4.00;;;;;;;4.43;86.73;100004.69;5053087;28;20257;-79
2022/02/20 07:04:19;;;;;;;5.97;3.70;;;;;;;4.40;86.45;100014.16;5043820;28;20209;-79
2022/02/20 07:06:46;;;;;;;4.10;3.70;;;;;;;4.46;86.50;100016.72;5043554;28;20221;-78
2022/02/20 07:09:13;;;;;;;3.70;3.40;;;;;;;4.56;85.95;100013.28;5043965;28;20199;-78
2022/02/20 07:11:40;;;;;;;4.07;3.47;;;;;;;4.37;84.20;100072.72;5045499;28;20201;-79
2022/02/20 07:14:08;;;;;;;3.73;2.90;;;;;;;4.32;84.49;100071.00;5047147;28;20270;-79
2022/02/20 07:16:34;;;;;;;4.37;2.90;;;;;;;4.27;83.92;100101.16;5047509;28;20271;-80
2022/02/20 07:19:01;;;;;;;6.30;2.80;;;;;;;4.18;83.75;100089.94;5045969;28;20275;-79
2022/02/20 07:21:28;;;;;;;2.83;2.60;;;;;;;4.16;84.50;100081.34;5046868;28;20198;-79
2022/02/20 07:23:58;;;;;;;3.50;2.83;;;;;;;4.22;85.01;100067.53;5046155;28;20207;-78
2022/02/20 07:26:24;;;;;;;4.90;2.70;;;;;;;4.31;84.99;100058.94;5045704;28;20228;-79
2022/02/20 07:28:50;;;;;;;2.80;2.60;;;;;;;4.32;85.26;100048.63;5047853;28;20253;-80
2022/02/20 07:31:18;;;;;;;2.57;2.37;;;;;;;4.38;85.32;100042.59;5046160;28;20200;-79
2022/02/20 07:33:44;;;;;;;3.43;2.20;;;;;;;4.21;84.59;100045.16;5046839;28;20251;-79
2022/02/20 07:36:11;;;;;;;2.80;2.60;;;;;;;4.36;84.81;100026.19;5045290;28;20219;-78
2022/02/20 07:38:37;;;;;;;3.07;2.60;;;;;;;4.37;84.48;100015.88;5046326;28;20228;-79
2022/02/20 07:41:03;;;;;;;5.30;3.10;;;;;;;4.42;84.70;100036.56;5045579;28;20201;-78
2022/02/20 07:43:30;;;;;;;4.27;2.90;;;;;;;4.35;84.44;100030.53;5045445;28;20236;-79
2022/02/20 07:45:57;;;;;;;4.17;3.87;;;;;;;4.38;83.91;100043.44;5048144;28;20224;-79
2022/02/20 07:48:25;;;;;;;4.80;4.30;;;;;;;4.43;83.71;100052.91;5045206;28;20750;-79
2022/02/20 07:50:51;;;;;;;5.10;4.57;;;;;;;4.54;84.24;100046.03;5045604;28;20201;-78
2022/02/20 07:53:18;;;;;;;6.60;4.60;;;;;;;4.51;84.09;100039.13;5046748;28;20210;-80
2022/02/20 07:55:46;;;;;;;6.40;5.80;;;;;;;4.48;83.73;100044.31;5052174;28;20220;-79
2022/02/20 07:58:15;;;;;;;6.70;6.10;;;;;;;4.61;84.27;100034.81;5037968;22;20283;-78
2022/02/20 08:00:41;;;;;;;7.73;5.73;;;;;;;4.73;84.51;100033.94;5005588;28;20258;-78
2022/02/20 08:03:09;;;;;;;7.57;6.53;;;;;;;4.81;84.25;100021.00;5003969;28;20216;-79
2022/02/20 08:05:37;;;;;;;6.13;5.63;;;;;;;4.81;84.47;100018.41;5004763;28;20221;-79
2022/02/20 08:08:03;;;;;;;6.60;6.00;;;;;;;4.88;83.65;100022.72;5005093;28;20221;-78
2022/02/20 08:10:30;;;;;;;6.70;6.10;;;;;;;4.68;82.51;100048.59;5003891;28;20197;-78
2022/02/20 08:12:56;;;;;;;6.83;5.90;;;;;;;4.66;83.41;100042.53;5006590;28;20693;-78
2022/02/20 08:15:23;;;;;;;5.93;5.33;;;;;;;4.64;83.22;100018.41;5004280;28;20253;-78
2022/02/20 08:17:50;;;;;;;5.17;4.70;;;;;;;4.69;84.29;99999.47;5004664;28;20270;-78
2022/02/20 08:20:18;;;;;;;6.43;5.83;;;;;;;4.66;84.62;99972.75;5005088;28;20193;-78
2022/02/20 08:22:46;;;;;;;5.43;4.93;;;;;;;4.74;84.99;99960.69;5005653;28;20224;-78
2022/02/20 08:25:12;;;;;;;11.53;10.37;;;;;;;4.82;85.94;99940.84;5004648;28;20683;-77
2022/02/20 08:27:40;;;;;;;6.53;5.87;;;;;;;4.85;85.77;99935.63;4998430;28;20223;-78
2022/02/20 08:30:09;;;;;;;5.37;4.87;;;;;;;4.72;86.01;99923.63;4995555;28;20251;-78
2022/02/20 08:32:36;;;;;;;5.30;4.80;;;;;;;4.81;86.57;99896.88;4995887;28;20267;-78
2022/02/20 08:35:08;;;;;;;6.37;5.13;;;;;;;4.78;87.46;99871.91;4995722;28;20207;-78
2022/02/20 08:37:34;;;;;;;5.60;5.10;;;;;;;4.80;87.98;99846.03;4995596;28;20229;-78
2022/02/20 08:40:03;;;;;;;5.93;5.30;;;;;;;4.86;88.27;99821.00;4995242;28;20210;-79
2022/02/20 08:42:29;;;;;;;5.67;5.03;;;;;;;4.91;88.52;99808.88;4995467;28;20215;-78
2022/02/20 08:44:57;;;;;;;6.30;5.20;;;;;;;4.93;88.95;99798.53;5005237;28;20262;-78
2022/02/20 08:47:23;;;;;;;6.20;5.47;;;;;;;4.95;88.94;99783.88;5015178;28;20272;-78
2022/02/20 08:49:50;;;;;;;6.37;5.07;;;;;;;5.01;89.96;99767.47;5014813;28;20220;-78
2022/02/20 08:52:16;;;;;;;7.10;5.43;;;;;;;4.96;89.97;99744.22;5015096;28;20210;-78
2022/02/20 08:54:42;;;;;;;4.77;4.37;;;;;;;4.96;89.44;99737.31;5015419;28;20210;-78
2022/02/20 08:57:10;;;;;;;6.23;4.50;;;;;;;5.01;89.19;99739.88;5012534;28;20316;-78
2022/02/20 08:59:37;;;;;;;6.03;4.77;;;;;;;5.07;89.38;99737.22;5007805;28;20277;-78
2022/02/20 09:02:03;;;;;;;4.77;4.23;;;;;;;5.00;89.56;99735.56;5014902;28;20214;-78
2022/02/20 09:04:30;;;;;;;6.03;5.10;;;;;;;4.87;90.01;99716.69;5009999;28;20211;-78
2022/02/20 09:06:56;;;;;;;4.50;4.10;;;;;;;4.94;90.80;99686.50;5011113;28;20301;-78
2022/02/20 09:09:23;;;;;;;4.33;4.00;;;;;;;4.99;90.78;99671.78;5013744;28;20198;-78
2022/02/20 09:11:49;;;;;;;4.77;3.83;;;;;;;4.87;91.15;99656.38;5013803;28;20265;-78
2022/02/20 09:14:17;;;;;;;7.50;4.60;;;;;;;4.92;90.73;99639.94;5005183;28;20203;-79
2022/02/20 09:16:43;;;;;;;5.30;3.57;;;;;;;4.96;91.63;99633.88;5014607;28;20705;-79
2022/02/20 09:19:10;;;;;;;4.57;3.20;;;;;;;4.94;91.96;99601.16;5014350;28;20306;-80
2022/02/20 09:21:36;;;;;;;4.47;3.30;;;;;;;5.03;91.88;99589.84;5003749;28;20683;-79
2022/02/20 09:24:02;;;;;;;5.57;3.20;;;;;;;4.96;92.57;99558.88;5009567;28;20669;-79
2022/02/20 09:26:29;;;;;;;5.77;2.80;;;;;;;5.03;92.52;99554.50;5006155;28;20265;-79
2022/02/20 09:28:55;;;;;;;5.57;3.40;;;;;;;4.84;92.80;99553.84;5013633;28;20428;-80
2022/02/20 09:31:23;;;;;;;5.50;3.73;;;;;;;4.96;92.72;99543.38;5003809;28;20202;-80
2022/02/20 09:33:49;;;;;;;7.30;2.97;;;;;;;4.95;92.93;99533.88;5014360;28;20210;-78
2022/02/20 09:36:15;;;;;;;6.93;2.90;;;;;;;4.82;93.88;99511.63;5005523;28;20207;-79
2022/02/20 09:38:42;;;;;;;5.10;3.10;;;;;;;4.98;94.27;99461.44;5013865;28;20650;-79
2022/02/20 09:41:10;;;;;;;4.73;3.00;;;;;;;4.98;94.84;99455.44;5012883;28;20606;-79
2022/02/20 09:43:39;;;;;;;5.03;2.60;;;;;;;5.03;94.60;99448.44;5013958;28;20644;-79
2022/02/20 09:46:06;;;;;;;3.20;2.73;;;;;;;5.11;93.87;99441.47;5013498;28;20281;-80
2022/02/20 09:48:35;;;;;;;2.97;2.63;;;;;;;5.14;94.01;99458.69;5014344;28;20280;-79
2022/02/20 09:51:01;;;;;;;4.80;2.67;;;;;;;5.01;93.96;99439.84;5013190;28;20218;-79
2022/02/20 09:53:28;;;;;;;5.03;2.37;;;;;;;5.05;94.93;99407.91;5013703;28;20210;-79
2022/02/20 09:55:55;;;;;;;6.23;3.73;;;;;;;5.06;95.07;99391.53;5013713;28;20751;-79
2022/02/20 09:58:22;;;;;;;4.53;2.43;;;;;;;5.10;94.88;99400.09;5013849;28;20235;-78
2022/02/20 10:00:54;;;;;;;2.80;2.53;;;;;;;5.05;95.18;99391.53;5005927;28;20208;-79
2022/02/20 10:03:31;;;;;;;3.57;2.40;;;;;;;5.07;94.81;99379.44;4995014;28;20269;-79
2022/02/20 10:06:00;;;;;;;2.83;2.50;;;;;;;5.03;95.05;99381.22;5000160;28;20741;-78
2022/02/20 10:08:27;;;;;;;4.97;2.20;;;;;;;5.07;95.40;99357.00;5009115;28;20591;-78
2022/02/20 10:10:54;;;;;;;2.50;1.80;;;;;;;5.09;95.80;99350.06;4993462;28;20574;-79
2022/02/20 10:13:27;;;;;;;2.93;2.30;;;;;;;5.12;95.79;99344.88;4993942;28;20246;-78
2022/02/20 10:15:54;;;;;;;4.33;2.27;;;;;;;5.09;95.85;99344.91;4993976;28;20207;-78
2022/02/20 10:18:23;;;;;;;5.53;2.93;;;;;;;5.15;96.50;99311.22;5005267;28;20223;-78
2022/02/20 10:21:02;;;;;;;3.27;2.10;;;;;;;5.18;96.88;99311.16;5013913;28;20214;-78
2022/02/20 10:23:38;;;;;;;3.93;2.70;;;;;;;5.23;97.36;99285.19;4994135;28;20220;-78
2022/02/20 10:26:12;;;;;;;3.00;2.30;;;;;;;5.31;97.61;99283.38;4994238;28;20221;-78
2022/02/20 10:28:58;;;;;;;3.23;2.93;;;;;;;5.38;98.07;99272.03;4994473;28;20240;-77
2022/02/20 10:31:39;;;;;;;3.03;2.30;;;;;;;5.46;98.23;99260.69;4994430;28;20626;-77
2022/02/20 10:34:06;;;;;;;2.40;1.90;;;;;;;5.49;98.49;99243.41;5012271;28;20210;-78
2022/02/20 10:36:50;;;;;;;5.07;2.30;;;;;;;5.55;98.85;99213.97;5006532;28;20262;-78
2022/02/20 10:39:18;;;;;;;3.50;1.80;;;;;;;5.63;98.80;99218.97;5013739;28;20249;-78
2022/02/20 10:41:45;;;;;;;1.77;1.63;;;;;;;5.64;99.00;99218.94;5004210;28;20209;-78
2022/02/20 10:44:11;;;;;;;2.40;1.77;;;;;;;5.72;99.39;99218.81;4995367;28;20279;-78
2022/02/20 10:46:37;;;;;;;1.90;1.70;;;;;;;5.79;99.51;99207.47;4993805;28;20266;-78
2022/02/20 10:49:05;;;;;;;2.77;2.20;;;;;;;5.86;100.00;99205.59;4994160;28;20203;-78
2022/02/20 10:51:38;;;;;;;2.13;1.80;;;;;;;5.93;100.00;99194.25;4993345;28;20599;-78
2022/02/20 10:54:07;;;;;;;1.43;1.20;;;;;;;5.97;99.86;99208.88;4999826;28;20215;-79
2022/02/20 10:56:41;;;;;;;2.77;1.70;;;;;;;6.02;99.99;99194.06;5012579;28;20836;-78
2022/02/20 10:59:08;;;;;;;3.40;1.30;;;;;;;6.08;100.00;99193.94;5011788;28;20230;-80
2022/02/20 11:01:35;;;;;;;1.83;1.60;;;;;;;6.14;100.00;99183.47;5011462;28;20210;-79
2022/02/20 11:04:06;;;;;;;1.90;1.43;;;;;;;6.14;100.00;99170.53;5011345;28;20207;-80
2022/02/20 11:06:33;;;;;;;1.83;1.40;;;;;;;6.20;100.00;99151.38;5004621;28;20198;-80
2022/02/20 11:09:01;;;;;;;2.17;1.20;;;;;;;6.24;100.00;99167.72;5011821;28;20206;-78
2022/02/20 11:11:37;;;;;;;2.00;1.30;;;;;;;6.35;100.00;99163.16;5011732;28;20214;-80
2022/02/20 11:14:04;;;;;;;2.20;1.10;;;;;;;6.40;100.00;99160.44;5011598;28;20253;-80
2022/02/20 11:16:32;;;;;;;1.10;1.00;;;;;;;6.47;100.00;99154.25;5011747;28;20681;-80
2022/02/20 11:19:01;;;;;;;1.07;1.00;;;;;;;6.51;100.00;99155.88;5005008;28;20234;-80
2022/02/20 11:21:28;;;;;;;2.40;1.30;;;;;;;6.53;100.00;99134.22;5004025;28;20238;-79
2022/02/20 11:23:57;;;;;;;1.33;0.90;;;;;;;6.58;100.00;99121.16;5011593;28;20203;-80
2022/02/20 11:26:26;;;;;;;0.93;0.73;;;;;;;6.56;100.00;99115.13;5011945;28;20210;-80
2022/02/20 11:28:53;;;;;;;0.93;0.83;;;;;;;6.55;100.00;99079.75;5009086;28;20195;-80
2022/02/20 11:31:20;;;;;;;2.63;1.17;;;;;;;6.64;100.00;99099.41;5000856;28;20202;-80
2022/02/20 11:33:51;;;;;;;0.47;0.47;;;;;;;6.68;100.00;99075.09;5001529;28;20264;-80
2022/02/20 11:36:18;;;;;;;2.17;0.80;;;;;;;6.77;100.00;99074.88;5000856;28;20229;-80
2022/02/20 11:39:04;;;;;;;1.00;0.70;;;;;;;6.87;100.00;99084.13;5000673;28;20639;-80